sensor_id;sensor_type;location;lat;lon;timestamp;temperature;humidity
44773;DHT22;30492;52.088;5.122;2022-09-30T00:01:15;11.60;99.90
44773;DHT22;30492;52.088;5.122;2022-09-30T00:04:22;11.60;99.90
44773;DHT22;30492;52.088;5.122;2022-09-30T00:07:27;11.60;99.90
44773;DHT22;30492;52.088;5.122;2022-09-30T00:10:40;11.50;99.90
44773;DHT22;30492;52.088;5.122;2022-09-30T00:13:56;11.50;99.90
44773;DHT22;30492;52.088;5.122;2022-09-30T00:17:02;11.50;99.90
44773;DHT22;30492;52.088;5.122;2022-09-30T00:20:08;11.50;99.90
44773;DHT22;30492;52.088;5.122;2022-09-30T00:23:15;11.50;99.90
44773;DHT22;30492;52.088;5.122;2022-09-30T00:26:23;11.40;99.90
44773;DHT22;30492;52.088;5.122;2022-09-30T00:29:36;11.40;99.90
44773;DHT22;30492;52.088;5.122;2022-09-30T00:32:50;11.40;99.90
44773;DHT22;30492;52.088;5.122;2022-09-30T00:35:57;11.30;99.90
44773;DHT22;30492;52.088;5.122;2022-09-30T00:39:05;11.30;99.90
44773;DHT22;30492;52.088;5.122;2022-09-30T00:42:13;11.40;99.90
44773;DHT22;30492;52.088;5.122;2022-09-30T00:45:26;11.30;99.90
44773;DHT22;30492;52.088;5.122;2022-09-30T00:48:35;11.30;99.90
44773;DHT22;30492;52.088;5.122;2022-09-30T00:51:42;11.30;99.90
44773;DHT22;30492;52.088;5.122;2022-09-30T00:54:54;11.20;99.90
44773;DHT22;30492;52.088;5.122;2022-09-30T00:58:11;11.20;99.90
44773;DHT22;30492;52.088;5.122;2022-09-30T01:01:18;11.20;99.90
44773;DHT22;30492;52.088;5.122;2022-09-30T01:04:29;11.20;99.90
44773;DHT22;30492;52.088;5.122;2022-09-30T01:07:43;11.10;99.90
44773;DHT22;30492;52.088;5.122;2022-09-30T01:11:01;11.20;99.90
44773;DHT22;30492;52.088;5.122;2022-09-30T01:14:13;11.20;99.90
44773;DHT22;30492;52.088;5.122;2022-09-30T01:17:29;11.20;99.90
44773;DHT22;30492;52.088;5.122;2022-09-30T01:21:02;11.20;99.90
44773;DHT22;30492;52.088;5.122;2022-09-30T01:28:29;11.10;99.90
44773;DHT22;30492;52.088;5.122;2022-09-30T01:31:56;11.10;99.90
44773;DHT22;30492;52.088;5.122;2022-09-30T01:35:20;11.10;99.90
44773;DHT22;30492;52.088;5.122;2022-09-30T01:38:36;11.00;99.90
44773;DHT22;30492;52.088;5.122;2022-09-30T01:41:49;11.00;99.90
44773;DHT22;30492;52.088;5.122;2022-09-30T01:45:09;11.00;99.90
44773;DHT22;30492;52.088;5.122;2022-09-30T01:48:21;11.10;99.90
44773;DHT22;30492;52.088;5.122;2022-09-30T01:51:40;11.10;99.90
44773;DHT22;30492;52.088;5.122;2022-09-30T01:55:05;11.10;99.90
44773;DHT22;30492;52.088;5.122;2022-09-30T01:58:16;11.10;99.90
44773;DHT22;30492;52.088;5.122;2022-09-30T02:01:26;11.10;99.90
44773;DHT22;30492;52.088;5.122;2022-09-30T02:04:43;11.10;99.90
44773;DHT22;30492;52.088;5.122;2022-09-30T02:07:56;11.10;99.90
44773;DHT22;30492;52.088;5.122;2022-09-30T02:11:07;11.10;99.90
44773;DHT22;30492;52.088;5.122;2022-09-30T02:14:19;11.10;99.90
44773;DHT22;30492;52.088;5.122;2022-09-30T02:17:33;11.10;99.90
44773;DHT22;30492;52.088;5.122;2022-09-30T02:20:59;11.10;99.90
44773;DHT22;30492;52.088;5.122;2022-09-30T02:24:20;11.10;99.90
44773;DHT22;30492;52.088;5.122;2022-09-30T02:28:02;11.10;99.90
44773;DHT22;30492;52.088;5.122;2022-09-30T02:31:20;11.10;99.90
44773;DHT22;30492;52.088;5.122;2022-09-30T02:34:31;11.00;99.90
44773;DHT22;30492;52.088;5.122;2022-09-30T02:38:12;11.00;99.90
44773;DHT22;30492;52.088;5.122;2022-09-30T02:41:43;11.00;99.90
44773;DHT22;30492;52.088;5.122;2022-09-30T02:45:13;10.90;99.90
44773;DHT22;30492;52.088;5.122;2022-09-30T02:48:34;10.90;99.90
44773;DHT22;30492;52.088;5.122;2022-09-30T02:52:10;10.90;99.90
44773;DHT22;30492;52.088;5.122;2022-09-30T02:55:44;10.80;99.90
44773;DHT22;30492;52.088;5.122;2022-09-30T02:59:06;10.80;99.90
44773;DHT22;30492;52.088;5.122;2022-09-30T03:05:56;10.70;99.90
44773;DHT22;30492;52.088;5.122;2022-09-30T03:09:08;10.70;99.90
44773;DHT22;30492;52.088;5.122;2022-09-30T03:12:27;10.70;99.90
44773;DHT22;30492;52.088;5.122;2022-09-30T03:15:59;10.70;99.90
44773;DHT22;30492;52.088;5.122;2022-09-30T03:19:25;10.70;99.90
44773;DHT22;30492;52.088;5.122;2022-09-30T03:22:44;10.60;99.90
44773;DHT22;30492;52.088;5.122;2022-09-30T03:26:17;10.60;99.90
44773;DHT22;30492;52.088;5.122;2022-09-30T03:29:51;10.60;99.90
44773;DHT22;30492;52.088;5.122;2022-09-30T03:33:36;10.50;99.90
44773;DHT22;30492;52.088;5.122;2022-09-30T03:36:57;10.50;99.90
44773;DHT22;30492;52.088;5.122;2022-09-30T03:40:22;10.50;99.90
44773;DHT22;30492;52.088;5.122;2022-09-30T03:43:33;10.50;99.90
44773;DHT22;30492;52.088;5.122;2022-09-30T03:47:12;10.40;99.90
44773;DHT22;30492;52.088;5.122;2022-09-30T03:50:23;10.40;99.90
44773;DHT22;30492;52.088;5.122;2022-09-30T03:53:40;10.30;99.90
44773;DHT22;30492;52.088;5.122;2022-09-30T03:57:04;10.30;99.90
44773;DHT22;30492;52.088;5.122;2022-09-30T04:00:20;10.30;99.90
44773;DHT22;30492;52.088;5.122;2022-09-30T04:03:42;10.20;99.90
44773;DHT22;30492;52.088;5.122;2022-09-30T04:06:57;10.20;99.90
44773;DHT22;30492;52.088;5.122;2022-09-30T04:10:02;10.20;99.90
44773;DHT22;30492;52.088;5.122;2022-09-30T04:13:09;10.20;99.90
44773;DHT22;30492;52.088;5.122;2022-09-30T04:16:32;10.20;99.90
44773;DHT22;30492;52.088;5.122;2022-09-30T04:19:46;10.20;99.90
44773;DHT22;30492;52.088;5.122;2022-09-30T04:22:51;10.10;99.90
44773;DHT22;30492;52.088;5.122;2022-09-30T04:25:42;10.20;99.90
44773;DHT22;30492;52.088;5.122;2022-09-30T04:28:52;10.10;99.90
44773;DHT22;30492;52.088;5.122;2022-09-30T04:32:03;10.10;99.90
44773;DHT22;30492;52.088;5.122;2022-09-30T04:35:37;10.10;99.90
44773;DHT22;30492;52.088;5.122;2022-09-30T04:38:46;10.00;99.90
44773;DHT22;30492;52.088;5.122;2022-09-30T04:42:22;10.00;99.90
44773;DHT22;30492;52.088;5.122;2022-09-30T04:48:56;10.00;99.90
44773;DHT22;30492;52.088;5.122;2022-09-30T04:52:03;9.90;99.90
44773;DHT22;30492;52.088;5.122;2022-09-30T04:55:09;9.90;99.90
44773;DHT22;30492;52.088;5.122;2022-09-30T04:58:14;10.00;99.90
44773;DHT22;30492;52.088;5.122;2022-09-30T05:01:20;10.00;99.90
44773;DHT22;30492;52.088;5.122;2022-09-30T05:04:48;9.90;99.90
44773;DHT22;30492;52.088;5.122;2022-09-30T05:08:01;9.90;99.90
44773;DHT22;30492;52.088;5.122;2022-09-30T05:11:17;9.90;99.90
44773;DHT22;30492;52.088;5.122;2022-09-30T05:14:26;9.90;99.90
44773;DHT22;30492;52.088;5.122;2022-09-30T05:17:42;9.90;99.90
44773;DHT22;30492;52.088;5.122;2022-09-30T05:20:56;9.80;99.90
44773;DHT22;30492;52.088;5.122;2022-09-30T05:24:06;9.80;99.90
44773;DHT22;30492;52.088;5.122;2022-09-30T05:27:13;9.80;99.90
44773;DHT22;30492;52.088;5.122;2022-09-30T05:30:25;9.80;99.90
44773;DHT22;30492;52.088;5.122;2022-09-30T05:33:35;9.80;99.90
44773;DHT22;30492;52.088;5.122;2022-09-30T05:36:47;9.80;99.90
44773;DHT22;30492;52.088;5.122;2022-09-30T05:39:54;9.80;99.90
44773;DHT22;30492;52.088;5.122;2022-09-30T05:42:46;9.80;99.90
44773;DHT22;30492;52.088;5.122;2022-09-30T05:45:56;9.80;99.90
44773;DHT22;30492;52.088;5.122;2022-09-30T05:49:07;9.70;99.90
44773;DHT22;30492;52.088;5.122;2022-09-30T05:52:13;9.80;99.90
44773;DHT22;30492;52.088;5.122;2022-09-30T05:55:26;9.80;99.90
44773;DHT22;30492;52.088;5.122;2022-09-30T05:58:33;9.80;99.90
44773;DHT22;30492;52.088;5.122;2022-09-30T06:01:42;9.80;99.90
44773;DHT22;30492;52.088;5.122;2022-09-30T06:04:49;9.80;99.90
44773;DHT22;30492;52.088;5.122;2022-09-30T06:07:58;9.80;99.90
44773;DHT22;30492;52.088;5.122;2022-09-30T06:11:17;9.80;99.90
44773;DHT22;30492;52.088;5.122;2022-09-30T06:14:28;9.80;99.90
44773;DHT22;30492;52.088;5.122;2022-09-30T06:17:43;9.80;99.90
44773;DHT22;30492;52.088;5.122;2022-09-30T06:20:50;9.80;99.90
44773;DHT22;30492;52.088;5.122;2022-09-30T06:23:58;9.90;99.90
44773;DHT22;30492;52.088;5.122;2022-09-30T06:27:16;9.90;99.90
44773;DHT22;30492;52.088;5.122;2022-09-30T06:31:00;10.00;99.90
44773;DHT22;30492;52.088;5.122;2022-09-30T06:34:26;10.00;99.90
44773;DHT22;30492;52.088;5.122;2022-09-30T06:37:40;10.10;99.90
44773;DHT22;30492;52.088;5.122;2022-09-30T06:40:47;10.20;99.90
44773;DHT22;30492;52.088;5.122;2022-09-30T06:44:01;10.30;99.90
44773;DHT22;30492;52.088;5.122;2022-09-30T06:47:08;10.40;99.90
44773;DHT22;30492;52.088;5.122;2022-09-30T06:50:21;10.40;99.90
44773;DHT22;30492;52.088;5.122;2022-09-30T06:53:29;10.30;99.90
44773;DHT22;30492;52.088;5.122;2022-09-30T06:56:38;10.40;99.90
44773;DHT22;30492;52.088;5.122;2022-09-30T06:59:59;10.50;99.90
44773;DHT22;30492;52.088;5.122;2022-09-30T07:03:25;10.50;99.90
44773;DHT22;30492;52.088;5.122;2022-09-30T07:06:38;10.60;99.90
44773;DHT22;30492;52.088;5.122;2022-09-30T07:09:59;10.90;99.90
44773;DHT22;30492;52.088;5.122;2022-09-30T07:13:19;11.10;99.90
44773;DHT22;30492;52.088;5.122;2022-09-30T07:16:46;11.30;99.90
44773;DHT22;30492;52.088;5.122;2022-09-30T07:20:23;11.40;99.90
44773;DHT22;30492;52.088;5.122;2022-09-30T07:23:47;11.50;99.90
44773;DHT22;30492;52.088;5.122;2022-09-30T07:26:54;11.70;99.90
44773;DHT22;30492;52.088;5.122;2022-09-30T07:30:07;11.90;99.90
44773;DHT22;30492;52.088;5.122;2022-09-30T07:33:28;12.10;99.90
44773;DHT22;30492;52.088;5.122;2022-09-30T07:37:00;12.40;99.90
44773;DHT22;30492;52.088;5.122;2022-09-30T07:40:13;12.50;99.90
44773;DHT22;30492;52.088;5.122;2022-09-30T07:43:32;12.70;99.90
44773;DHT22;30492;52.088;5.122;2022-09-30T07:46:41;12.80;99.90
44773;DHT22;30492;52.088;5.122;2022-09-30T07:49:51;13.00;99.90
44773;DHT22;30492;52.088;5.122;2022-09-30T07:53:04;13.10;99.90
44773;DHT22;30492;52.088;5.122;2022-09-30T07:56:23;13.10;99.90
44773;DHT22;30492;52.088;5.122;2022-09-30T07:59:36;13.30;99.90
44773;DHT22;30492;52.088;5.122;2022-09-30T08:02:47;13.40;99.90
44773;DHT22;30492;52.088;5.122;2022-09-30T08:05:54;13.30;99.90
44773;DHT22;30492;52.088;5.122;2022-09-30T08:09:00;13.50;99.90
44773;DHT22;30492;52.088;5.122;2022-09-30T08:12:21;13.60;99.90
44773;DHT22;30492;52.088;5.122;2022-09-30T08:15:36;13.80;99.90
44773;DHT22;30492;52.088;5.122;2022-09-30T08:18:41;14.10;99.90
44773;DHT22;30492;52.088;5.122;2022-09-30T08:22:06;14.30;99.90
44773;DHT22;30492;52.088;5.122;2022-09-30T08:29:01;14.60;99.90
44773;DHT22;30492;52.088;5.122;2022-09-30T08:32:08;14.90;99.90
44773;DHT22;30492;52.088;5.122;2022-09-30T08:35:13;15.10;99.90
44773;DHT22;30492;52.088;5.122;2022-09-30T08:38:20;15.30;99.90
44773;DHT22;30492;52.088;5.122;2022-09-30T08:41:55;15.50;99.90
44773;DHT22;30492;52.088;5.122;2022-09-30T08:45:42;15.70;99.90
44773;DHT22;30492;52.088;5.122;2022-09-30T08:48:59;15.80;99.90
44773;DHT22;30492;52.088;5.122;2022-09-30T08:52:23;15.90;99.90
44773;DHT22;30492;52.088;5.122;2022-09-30T08:55:38;15.80;99.90
44773;DHT22;30492;52.088;5.122;2022-09-30T08:58:32;15.60;99.90
44773;DHT22;30492;52.088;5.122;2022-09-30T09:01:41;15.40;99.90
44773;DHT22;30492;52.088;5.122;2022-09-30T09:04:51;15.30;99.90
44773;DHT22;30492;52.088;5.122;2022-09-30T09:08:12;15.30;99.90
44773;DHT22;30492;52.088;5.122;2022-09-30T09:11:57;15.40;99.90
44773;DHT22;30492;52.088;5.122;2022-09-30T09:15:27;15.40;99.90
44773;DHT22;30492;52.088;5.122;2022-09-30T09:18:58;15.60;99.90
44773;DHT22;30492;52.088;5.122;2022-09-30T09:22:10;15.70;99.90
44773;DHT22;30492;52.088;5.122;2022-09-30T09:25:11;15.80;99.90
44773;DHT22;30492;52.088;5.122;2022-09-30T09:28:32;15.90;99.90
44773;DHT22;30492;52.088;5.122;2022-09-30T09:31:27;16.10;99.90
44773;DHT22;30492;52.088;5.122;2022-09-30T09:34:32;16.20;99.90
44773;DHT22;30492;52.088;5.122;2022-09-30T09:37:47;16.30;99.90
44773;DHT22;30492;52.088;5.122;2022-09-30T09:41:25;16.40;99.90
44773;DHT22;30492;52.088;5.122;2022-09-30T09:44:44;16.70;99.90
44773;DHT22;30492;52.088;5.122;2022-09-30T09:48:12;16.80;99.90
44773;DHT22;30492;52.088;5.122;2022-09-30T09:51:46;16.90;99.90
44773;DHT22;30492;52.088;5.122;2022-09-30T09:55:04;16.90;99.90
44773;DHT22;30492;52.088;5.122;2022-09-30T09:58:12;17.00;99.90
44773;DHT22;30492;52.088;5.122;2022-09-30T10:01:22;17.10;99.90
44773;DHT22;30492;52.088;5.122;2022-09-30T10:04:47;17.00;99.90
44773;DHT22;30492;52.088;5.122;2022-09-30T10:12:16;17.20;99.90
44773;DHT22;30492;52.088;5.122;2022-09-30T10:15:22;17.50;99.90
44773;DHT22;30492;52.088;5.122;2022-09-30T10:18:31;17.60;99.90
44773;DHT22;30492;52.088;5.122;2022-09-30T10:21:37;17.70;99.90
44773;DHT22;30492;52.088;5.122;2022-09-30T10:24:42;17.50;99.90
44773;DHT22;30492;52.088;5.122;2022-09-30T10:27:52;17.60;99.90
44773;DHT22;30492;52.088;5.122;2022-09-30T10:31:05;17.60;99.90
44773;DHT22;30492;52.088;5.122;2022-09-30T10:34:34;17.80;99.90
44773;DHT22;30492;52.088;5.122;2022-09-30T10:37:50;17.80;99.90
44773;DHT22;30492;52.088;5.122;2022-09-30T10:41:04;17.80;99.90
44773;DHT22;30492;52.088;5.122;2022-09-30T10:44:17;17.90;99.90
44773;DHT22;30492;52.088;5.122;2022-09-30T10:47:30;18.10;99.90
44773;DHT22;30492;52.088;5.122;2022-09-30T10:50:46;18.10;99.90
44773;DHT22;30492;52.088;5.122;2022-09-30T10:54:47;18.00;99.90
44773;DHT22;30492;52.088;5.122;2022-09-30T10:58:28;18.10;99.90
44773;DHT22;30492;52.088;5.122;2022-09-30T11:01:44;18.20;99.90
44773;DHT22;30492;52.088;5.122;2022-09-30T11:05:14;18.40;99.90
44773;DHT22;30492;52.088;5.122;2022-09-30T11:08:28;18.80;99.90
44773;DHT22;30492;52.088;5.122;2022-09-30T11:11:37;19.20;99.90
44773;DHT22;30492;52.088;5.122;2022-09-30T11:14:52;19.50;99.90
44773;DHT22;30492;52.088;5.122;2022-09-30T11:18:46;19.30;99.90
44773;DHT22;30492;52.088;5.122;2022-09-30T11:21:54;19.00;99.90
44773;DHT22;30492;52.088;5.122;2022-09-30T11:25:05;19.10;99.90
44773;DHT22;30492;52.088;5.122;2022-09-30T11:28:43;18.90;99.90
44773;DHT22;30492;52.088;5.122;2022-09-30T11:32:06;18.80;99.90
44773;DHT22;30492;52.088;5.122;2022-09-30T11:35:36;18.90;99.90
44773;DHT22;30492;52.088;5.122;2022-09-30T11:39:19;18.70;99.90
44773;DHT22;30492;52.088;5.122;2022-09-30T11:43:18;18.70;99.90
44773;DHT22;30492;52.088;5.122;2022-09-30T11:47:24;18.90;99.90
44773;DHT22;30492;52.088;5.122;2022-09-30T11:50:47;19.10;99.90
44773;DHT22;30492;52.088;5.122;2022-09-30T11:54:24;19.30;99.90
44773;DHT22;30492;52.088;5.122;2022-09-30T11:57:51;19.20;99.90
44773;DHT22;30492;52.088;5.122;2022-09-30T12:01:30;19.30;99.90
44773;DHT22;30492;52.088;5.122;2022-09-30T12:08:41;19.00;99.90
44773;DHT22;30492;52.088;5.122;2022-09-30T12:12:06;19.20;99.90
44773;DHT22;30492;52.088;5.122;2022-09-30T12:15:21;19.00;99.90
44773;DHT22;30492;52.088;5.122;2022-09-30T12:18:39;19.10;99.90
44773;DHT22;30492;52.088;5.122;2022-09-30T12:21:50;19.20;99.90
44773;DHT22;30492;52.088;5.122;2022-09-30T12:25:31;19.30;99.90
44773;DHT22;30492;52.088;5.122;2022-09-30T12:28:43;19.10;99.90
44773;DHT22;30492;52.088;5.122;2022-09-30T12:32:34;18.90;99.90
44773;DHT22;30492;52.088;5.122;2022-09-30T12:40:00;18.20;99.90
44773;DHT22;30492;52.088;5.122;2022-09-30T12:43:29;18.00;99.90
44773;DHT22;30492;52.088;5.122;2022-09-30T12:47:01;18.00;99.90
44773;DHT22;30492;52.088;5.122;2022-09-30T12:50:12;18.10;99.90
44773;DHT22;30492;52.088;5.122;2022-09-30T12:53:33;18.20;99.90
44773;DHT22;30492;52.088;5.122;2022-09-30T12:57:08;18.40;99.90
44773;DHT22;30492;52.088;5.122;2022-09-30T13:00:18;18.60;99.90
44773;DHT22;30492;52.088;5.122;2022-09-30T13:03:28;18.60;99.90
44773;DHT22;30492;52.088;5.122;2022-09-30T13:10:43;18.50;99.90
44773;DHT22;30492;52.088;5.122;2022-09-30T13:14:18;18.40;99.90
44773;DHT22;30492;52.088;5.122;2022-09-30T13:17:53;18.30;99.90
44773;DHT22;30492;52.088;5.122;2022-09-30T13:21:43;18.10;99.90
44773;DHT22;30492;52.088;5.122;2022-09-30T13:25:53;18.40;99.90
44773;DHT22;30492;52.088;5.122;2022-09-30T13:33:03;18.70;99.90
44773;DHT22;30492;52.088;5.122;2022-09-30T13:36:26;19.00;99.90
44773;DHT22;30492;52.088;5.122;2022-09-30T13:39:47;19.10;99.90
44773;DHT22;30492;52.088;5.122;2022-09-30T13:42:59;19.00;99.90
44773;DHT22;30492;52.088;5.122;2022-09-30T13:46:21;18.70;99.90
44773;DHT22;30492;52.088;5.122;2022-09-30T13:49:58;18.50;99.90
44773;DHT22;30492;52.088;5.122;2022-09-30T13:53:19;18.70;99.90
44773;DHT22;30492;52.088;5.122;2022-09-30T13:56:35;18.80;99.90
44773;DHT22;30492;52.088;5.122;2022-09-30T14:00:18;18.70;99.90
44773;DHT22;30492;52.088;5.122;2022-09-30T14:03:52;18.50;99.90
44773;DHT22;30492;52.088;5.122;2022-09-30T14:07:14;18.40;99.90
44773;DHT22;30492;52.088;5.122;2022-09-30T14:10:37;18.30;99.90
44773;DHT22;30492;52.088;5.122;2022-09-30T14:14:00;18.10;99.90
44773;DHT22;30492;52.088;5.122;2022-09-30T14:17:25;18.10;99.90
44773;DHT22;30492;52.088;5.122;2022-09-30T14:21:17;18.00;99.90
44773;DHT22;30492;52.088;5.122;2022-09-30T14:25:19;18.00;99.90
44773;DHT22;30492;52.088;5.122;2022-09-30T14:28:56;18.00;99.90
44773;DHT22;30492;52.088;5.122;2022-09-30T14:32:11;17.80;99.90
44773;DHT22;30492;52.088;5.122;2022-09-30T14:35:27;17.90;99.90
44773;DHT22;30492;52.088;5.122;2022-09-30T14:38:35;17.80;99.90
44773;DHT22;30492;52.088;5.122;2022-09-30T14:41:59;17.80;99.90
44773;DHT22;30492;52.088;5.122;2022-09-30T14:45:18;17.90;99.90
44773;DHT22;30492;52.088;5.122;2022-09-30T14:48:32;18.00;99.90
44773;DHT22;30492;52.088;5.122;2022-09-30T14:51:55;18.00;99.90
44773;DHT22;30492;52.088;5.122;2022-09-30T14:54:59;18.10;99.90
44773;DHT22;30492;52.088;5.122;2022-09-30T14:58:29;18.20;99.90
44773;DHT22;30492;52.088;5.122;2022-09-30T15:01:49;18.30;99.90
44773;DHT22;30492;52.088;5.122;2022-09-30T15:04:58;18.20;99.90
44773;DHT22;30492;52.088;5.122;2022-09-30T15:08:32;18.00;99.90
44773;DHT22;30492;52.088;5.122;2022-09-30T15:11:47;17.90;99.90
44773;DHT22;30492;52.088;5.122;2022-09-30T15:15:26;17.70;99.90
44773;DHT22;30492;52.088;5.122;2022-09-30T15:18:33;17.70;99.90
44773;DHT22;30492;52.088;5.122;2022-09-30T15:21:50;17.80;99.90
44773;DHT22;30492;52.088;5.122;2022-09-30T15:24:58;17.80;99.90
44773;DHT22;30492;52.088;5.122;2022-09-30T15:28:03;17.80;99.90
44773;DHT22;30492;52.088;5.122;2022-09-30T15:31:29;17.70;99.90
44773;DHT22;30492;52.088;5.122;2022-09-30T15:34:39;17.60;99.90
44773;DHT22;30492;52.088;5.122;2022-09-30T15:37:51;17.60;99.90
44773;DHT22;30492;52.088;5.122;2022-09-30T15:41:05;17.50;99.90
44773;DHT22;30492;52.088;5.122;2022-09-30T15:44:35;17.30;99.90
44773;DHT22;30492;52.088;5.122;2022-09-30T15:47:54;17.10;99.90
44773;DHT22;30492;52.088;5.122;2022-09-30T15:51:30;17.10;99.90
44773;DHT22;30492;52.088;5.122;2022-09-30T15:54:51;17.10;99.90
44773;DHT22;30492;52.088;5.122;2022-09-30T15:58:03;17.00;99.90
44773;DHT22;30492;52.088;5.122;2022-09-30T16:01:36;16.90;99.90
44773;DHT22;30492;52.088;5.122;2022-09-30T16:04:52;16.80;99.90
44773;DHT22;30492;52.088;5.122;2022-09-30T16:08:08;16.70;99.90
44773;DHT22;30492;52.088;5.122;2022-09-30T16:11:27;16.70;99.90
44773;DHT22;30492;52.088;5.122;2022-09-30T16:14:40;16.60;99.90
44773;DHT22;30492;52.088;5.122;2022-09-30T16:17:47;16.50;99.90
44773;DHT22;30492;52.088;5.122;2022-09-30T16:20:58;16.50;99.90
44773;DHT22;30492;52.088;5.122;2022-09-30T16:24:03;16.40;99.90
44773;DHT22;30492;52.088;5.122;2022-09-30T16:27:25;16.30;99.90
44773;DHT22;30492;52.088;5.122;2022-09-30T16:30:49;16.20;99.90
44773;DHT22;30492;52.088;5.122;2022-09-30T16:34:04;16.30;99.90
44773;DHT22;30492;52.088;5.122;2022-09-30T16:37:33;16.20;99.90
44773;DHT22;30492;52.088;5.122;2022-09-30T16:40:45;16.10;99.90
44773;DHT22;30492;52.088;5.122;2022-09-30T16:44:01;16.10;99.90
44773;DHT22;30492;52.088;5.122;2022-09-30T16:47:25;16.10;99.90
44773;DHT22;30492;52.088;5.122;2022-09-30T16:50:40;16.00;99.90
44773;DHT22;30492;52.088;5.122;2022-09-30T16:53:53;15.90;99.90
44773;DHT22;30492;52.088;5.122;2022-09-30T16:57:00;15.90;99.90
44773;DHT22;30492;52.088;5.122;2022-09-30T17:00:10;15.80;99.90
44773;DHT22;30492;52.088;5.122;2022-09-30T17:03:56;15.70;99.90
44773;DHT22;30492;52.088;5.122;2022-09-30T17:07:13;15.70;99.90
44773;DHT22;30492;52.088;5.122;2022-09-30T17:10:28;15.60;99.90
44773;DHT22;30492;52.088;5.122;2022-09-30T17:13:51;15.70;99.90
44773;DHT22;30492;52.088;5.122;2022-09-30T17:17:04;15.60;99.90
44773;DHT22;30492;52.088;5.122;2022-09-30T17:20:01;15.60;99.90
44773;DHT22;30492;52.088;5.122;2022-09-30T17:23:10;15.50;99.90
44773;DHT22;30492;52.088;5.122;2022-09-30T17:26:18;15.40;99.90
44773;DHT22;30492;52.088;5.122;2022-09-30T17:29:33;15.40;99.90
44773;DHT22;30492;52.088;5.122;2022-09-30T17:32:45;15.30;99.90
44773;DHT22;30492;52.088;5.122;2022-09-30T17:36:02;15.30;99.90
44773;DHT22;30492;52.088;5.122;2022-09-30T17:39:16;15.20;99.90
44773;DHT22;30492;52.088;5.122;2022-09-30T17:42:37;15.20;99.90
44773;DHT22;30492;52.088;5.122;2022-09-30T17:46:08;15.10;99.90
44773;DHT22;30492;52.088;5.122;2022-09-30T17:49:23;15.00;99.90
44773;DHT22;30492;52.088;5.122;2022-09-30T17:56:19;15.00;99.90
44773;DHT22;30492;52.088;5.122;2022-09-30T17:59:50;14.90;99.90
44773;DHT22;30492;52.088;5.122;2022-09-30T18:03:08;14.80;99.90
44773;DHT22;30492;52.088;5.122;2022-09-30T18:06:18;14.80;99.90
44773;DHT22;30492;52.088;5.122;2022-09-30T18:09:37;14.70;99.90
44773;DHT22;30492;52.088;5.122;2022-09-30T18:12:46;14.70;99.90
44773;DHT22;30492;52.088;5.122;2022-09-30T18:16:09;14.60;99.90
44773;DHT22;30492;52.088;5.122;2022-09-30T18:19:33;14.60;99.90
44773;DHT22;30492;52.088;5.122;2022-09-30T18:22:44;14.60;99.90
44773;DHT22;30492;52.088;5.122;2022-09-30T18:25:52;14.50;99.90
44773;DHT22;30492;52.088;5.122;2022-09-30T18:29:04;14.50;99.90
44773;DHT22;30492;52.088;5.122;2022-09-30T18:32:23;14.50;99.90
44773;DHT22;30492;52.088;5.122;2022-09-30T18:35:30;14.50;99.90
44773;DHT22;30492;52.088;5.122;2022-09-30T18:38:54;14.50;99.90
44773;DHT22;30492;52.088;5.122;2022-09-30T18:42:14;14.50;99.90
44773;DHT22;30492;52.088;5.122;2022-09-30T18:45:31;14.40;99.90
44773;DHT22;30492;52.088;5.122;2022-09-30T18:48:39;14.40;99.90
44773;DHT22;30492;52.088;5.122;2022-09-30T18:51:47;14.40;99.90
44773;DHT22;30492;52.088;5.122;2022-09-30T18:54:56;14.40;99.90
44773;DHT22;30492;52.088;5.122;2022-09-30T18:58:28;14.40;99.90
44773;DHT22;30492;52.088;5.122;2022-09-30T19:01:37;14.40;99.90
44773;DHT22;30492;52.088;5.122;2022-09-30T19:05:16;14.40;99.90
44773;DHT22;30492;52.088;5.122;2022-09-30T19:08:27;14.40;99.90
44773;DHT22;30492;52.088;5.122;2022-09-30T19:11:32;14.40;99.90
44773;DHT22;30492;52.088;5.122;2022-09-30T19:14:38;14.40;99.90
44773;DHT22;30492;52.088;5.122;2022-09-30T19:18:07;14.40;99.90
44773;DHT22;30492;52.088;5.122;2022-09-30T19:21:33;14.40;99.90
44773;DHT22;30492;52.088;5.122;2022-09-30T19:24:48;14.40;99.90
44773;DHT22;30492;52.088;5.122;2022-09-30T19:27:55;14.30;99.90
44773;DHT22;30492;52.088;5.122;2022-09-30T19:31:11;14.30;99.90
44773;DHT22;30492;52.088;5.122;2022-09-30T19:34:42;14.30;99.90
44773;DHT22;30492;52.088;5.122;2022-09-30T19:37:49;14.30;99.90
44773;DHT22;30492;52.088;5.122;2022-09-30T19:40:59;14.40;99.90
44773;DHT22;30492;52.088;5.122;2022-09-30T19:44:04;14.30;99.90
44773;DHT22;30492;52.088;5.122;2022-09-30T19:47:21;14.30;99.90
44773;DHT22;30492;52.088;5.122;2022-09-30T19:50:39;14.30;99.90
44773;DHT22;30492;52.088;5.122;2022-09-30T19:54:00;14.40;99.90
44773;DHT22;30492;52.088;5.122;2022-09-30T19:57:13;14.30;99.90
44773;DHT22;30492;52.088;5.122;2022-09-30T20:01:14;14.40;99.90
44773;DHT22;30492;52.088;5.122;2022-09-30T20:04:34;14.30;99.90
44773;DHT22;30492;52.088;5.122;2022-09-30T20:07:47;14.30;99.90
44773;DHT22;30492;52.088;5.122;2022-09-30T20:11:00;14.30;99.90
44773;DHT22;30492;52.088;5.122;2022-09-30T20:14:10;14.30;99.90
44773;DHT22;30492;52.088;5.122;2022-09-30T20:17:35;14.30;99.90
44773;DHT22;30492;52.088;5.122;2022-09-30T20:20:41;14.20;99.90
44773;DHT22;30492;52.088;5.122;2022-09-30T20:23:58;14.20;99.90
44773;DHT22;30492;52.088;5.122;2022-09-30T20:27:15;14.20;99.90
44773;DHT22;30492;52.088;5.122;2022-09-30T20:30:37;14.20;99.90
44773;DHT22;30492;52.088;5.122;2022-09-30T20:34:05;14.20;99.90
44773;DHT22;30492;52.088;5.122;2022-09-30T20:37:00;14.20;99.90
44773;DHT22;30492;52.088;5.122;2022-09-30T20:40:20;14.20;99.90
44773;DHT22;30492;52.088;5.122;2022-09-30T20:43:28;14.20;99.90
44773;DHT22;30492;52.088;5.122;2022-09-30T20:46:37;14.20;99.90
44773;DHT22;30492;52.088;5.122;2022-09-30T20:49:53;14.20;99.90
44773;DHT22;30492;52.088;5.122;2022-09-30T20:53:09;14.20;99.90
44773;DHT22;30492;52.088;5.122;2022-09-30T20:56:32;14.20;99.90
44773;DHT22;30492;52.088;5.122;2022-09-30T20:59:43;14.20;99.90
44773;DHT22;30492;52.088;5.122;2022-09-30T21:02:51;14.20;99.90
44773;DHT22;30492;52.088;5.122;2022-09-30T21:06:03;14.20;99.90
44773;DHT22;30492;52.088;5.122;2022-09-30T21:09:14;14.20;99.90
44773;DHT22;30492;52.088;5.122;2022-09-30T21:12:26;14.10;99.90
44773;DHT22;30492;52.088;5.122;2022-09-30T21:15:24;14.10;99.90
44773;DHT22;30492;52.088;5.122;2022-09-30T21:18:39;14.00;99.90
44773;DHT22;30492;52.088;5.122;2022-09-30T21:21:54;13.90;99.90
44773;DHT22;30492;52.088;5.122;2022-09-30T21:25:00;13.80;99.90
44773;DHT22;30492;52.088;5.122;2022-09-30T21:28:14;13.70;99.90
44773;DHT22;30492;52.088;5.122;2022-09-30T21:31:31;13.60;99.90